Bergen, Canada
Current Conditions -  °F | °C
As of 4:00 PM on Saturday 20 Dec 2014 (Local Time) from CYBW Reporting Station
Overcast Overcast  
Wind Chill: 26°   Ceiling: 14000
Heat Index: 32°   Visibility: 9mi
Dew Point: 23°   Wind: 6mph
Humidity: 69%   Direction: 190°S
Pressure: 29.53"   Gusts: NA
Location:  51.71°N, 114.63°W
Report Text: CYBW 202300Z AUTO 19005KT 9SM OVC140 M00/M05 A2953 RMK SLP043
Loading
Personal Weather Stations






























Interactive Weather Map New forecast layout! Learn more

10-Day Weather Forecast

Advertisements
Track Severe Weather on mobile